This is the latest recevied weather packets stored in our database for station/object SP9INZ-13. If no packets are shown the sender has not sent any weather packets the latest 10 day(s).
| Time | Temp. | Humidity | Pressure | Rain* | Wind** | Luminosity | Snow |
|---|---|---|---|---|---|---|---|
| 1777170570 | 10° C | 58% | 1020.9 hPa | - | - | - | - |
| 1777169611 | 10.56° C | 59% | 1019.9 hPa | - | - | - | - |
| 1777168655 | 10.56° C | 61% | 1019.6 hPa | - | - | - | - |
| 1777167695 | 11.67° C | 62% | 1017.5 hPa | - | - | - | - |
| 1777166738 | 12.22° C | 62% | 1016.7 hPa | - | - | - | - |
| 1777165779 | 12.22° C | 63% | 1016.9 hPa | - | - | - | - |
| 1777164822 | 12.22° C | 61% | 1017.1 hPa | - | - | - | - |
| 1777163864 | 12.22° C | 61% | 1017.3 hPa | - | - | - | - |
| 1777162905 | 12.78° C | 58% | 1017.6 hPa | - | - | - | - |
| 1777161948 | 12.78° C | 54% | 1018.1 hPa | - | - | - | - |
| 1777160989 | 13.33° C | 51% | 1018.5 hPa | - | - | - | - |
| 1777160031 | 13.89° C | 47% | 1018.6 hPa | - | - | - | - |
| 1777159074 | 14.44° C | 45% | 1018.3 hPa | - | - | - | - |
| 1777158117 | 14.44° C | 42% | 1018.4 hPa | - | - | - | - |
| 1777157157 | 14.44° C | 42% | 1018.7 hPa | - | - | - | - |
| 1777156199 | 15° C | 41% | 1018.6 hPa | - | - | - | - |
| 1777155242 | 15° C | 42% | 1018.7 hPa | - | - | - | - |
| 1777154283 | 15° C | 41% | 1018.6 hPa | - | - | - | - |
| 1777153326 | 15.56° C | 41% | 1018.4 hPa | - | - | - | - |
| 1777152367 | 15.56° C | 42% | 1018.3 hPa | - | - | - | - |
| 1777151416 | 15.56° C | 41% | 1018.4 hPa | - | - | - | - |
| 1777151409 | 15.56° C | 41% | 1018.4 hPa | - | - | - | - |
| 1777150452 | 15.56° C | 40% | 1018.5 hPa | - | - | - | - |
| 1777149493 | 16.11° C | 39% | 1018.4 hPa | - | - | - | - |
| 1777148537 | 16.11° C | 39% | 1018.4 hPa | - | - | - | - |
* Rain since midnight (hover to see other rain measurements)
** Current wind speed in m/s (hover to see current wind gust speed)